Accueil
METAR-TAF:

METAR-TAF

Aéroports :

Paderborn-Lippstadt, Allemagne

latitude: 51-37N, longitude: 008-37E, altitude: 213 m

Observation

Le bulletin a été fait il y a 42 minutes, à 12:20 UTC
Vent 10 kt de est
Température 2°C
Humidité 80%
Pression 1017 hPa
Visibilité 10 km ou plus
Ciel couvert à une hauteur de 1400 ft

METAR: EDLP 211220Z 10010KT 9999 OVC014 02/M01 Q1017

Heure: 14:02 (13:02 UTC)

Prévision

Le bulletin a été fait il y a 2 heures et 2 minutes, à 11:00 UTC
Prévision valable du 21 à 12 UTC au 22 à 12 UTC
Vent 8 kt de est/sud-est
Visibilité 10 km ou plus
Ciel couvert à une hauteur de 1400 ft
Temporairement
du 21 à 12 UTC au 21 à 18 UTC
Nuages fragmentés à une hauteur de 1500 ft
Probabilité 30% :
Temporairement
du 22 à 03 UTC au 22 à 09 UTC
Visibilité: 4000 m
Nuages fragmentés à une hauteur de 800 ft
brume

TAF: EDLP 211100Z 2112/2212 11008KT 9999 OVC014 TEMPO 2112/2118 BKN015 PROB30 TEMPO 2203/2209 4000 BR BKN008

Observations et prévisions météorologiques de plus de 4000 aéroports (messages METAR et TAF).

Les stations disponibles sont représentées par des disques jaunes et rouges sur la carte.

Passer la souris dessus pour voir le nom de la station.

Cliquer dessus pour voir les observations et prévisions météorologiques.

Pour changer de carte: cliquez sur les boutons verts avec une croix noire pour zoomer, sur le bouton vert avec un tiret pour effectuer un zoom arrière, ou sur les flèches vertes pour les cartes adjacentes.


METAR-TAF: